Time;durP1;ratioP1;P1;durP2;ratioP2;P2;SDS_P1;SDS_P2;PMS_P1;PMS_P2;Temp;Humidity;BMP_temperature;BMP_pressure;BME280_temperature;BME280_humidity;BME280_pressure;Samples;Min_cycle;Max_cycle;Signal;HPM_P1;HPM_P2
2023/02/06 08:02:13;;;;;;;11.97;8.33;;;14.10;43.30;;;;;;5988145;23;21112;31
2023/02/06 08:04:39;;;;;;;7.30;6.60;;;14.10;43.40;;;;;;4899983;29;20488;-64
2023/02/06 08:07:05;;;;;;;10.57;8.27;;;14.10;43.80;;;;;;4901264;29;20420;-64
2023/02/06 08:09:32;;;;;;;8.57;6.23;;;14.10;43.80;;;;;;4901111;29;20185;-64
2023/02/06 08:11:58;;;;;;;8.53;6.37;;;14.10;43.80;;;;;;4901349;29;20419;-62
2023/02/06 08:14:24;;;;;;;9.63;6.70;;;14.20;43.90;;;;;;4900977;29;20475;-62
2023/02/06 08:16:50;;;;;;;7.23;6.50;;;14.20;43.80;;;;;;4901103;29;20872;-64
2023/02/06 08:19:16;;;;;;;7.03;6.10;;;14.30;43.70;;;;;;4901103;29;20475;-64
2023/02/06 08:21:42;;;;;;;7.20;5.63;;;14.40;43.60;;;;;;4901027;29;20468;-65
2023/02/06 08:24:10;;;;;;;7.10;6.40;;;14.40;43.50;;;;;;4900802;29;20465;-64
2023/02/06 08:26:36;;;;;;;7.43;6.67;;;14.50;43.40;;;;;;4901059;29;20187;-64
2023/02/06 08:29:04;;;;;;;7.30;6.40;;;14.60;43.30;;;;;;4899672;29;20413;-64
2023/02/06 08:31:32;;;;;;;6.30;5.70;;;14.60;43.20;;;;;;4901319;29;20451;-64
2023/02/06 08:33:58;;;;;;;6.47;5.83;;;14.70;43.20;;;;;;4901080;29;20444;-64
2023/02/06 08:36:24;;;;;;;6.07;5.27;;;14.80;43.10;;;;;;4900614;29;20421;-64
2023/02/06 08:38:51;;;;;;;6.10;5.50;;;14.80;43.00;;;;;;4900728;29;20224;-62
2023/02/06 08:41:18;;;;;;;8.80;5.80;;;14.90;42.90;;;;;;4900769;29;20428;-64
2023/02/06 08:43:49;;;;;;;6.93;6.23;;;14.90;42.80;;;;;;4900354;29;20452;-65
2023/02/06 08:46:16;;;;;;;5.73;5.23;;;14.90;42.70;;;;;;4900312;29;20413;-64
2023/02/06 08:48:42;;;;;;;6.03;5.40;;;15.00;42.70;;;;;;4900441;29;20413;-64
2023/02/06 08:51:09;;;;;;;5.97;5.40;;;15.00;42.70;;;;;;4900542;29;20447;-64
2023/02/06 08:53:35;;;;;;;6.60;5.93;;;15.00;43.20;;;;;;4900520;29;20861;-64
2023/02/06 08:56:07;;;;;;;6.70;5.80;;;15.10;42.70;;;;;;4899052;29;20925;-64
2023/02/06 08:58:34;;;;;;;7.67;6.90;;;15.10;42.60;;;;;;4900408;29;20411;-62
2023/02/06 09:01:15;;;;;;;5.80;5.00;;;15.10;42.60;;;;;;4900271;29;20450;-62
2023/02/06 09:03:42;;;;;;;6.90;5.53;;;15.10;42.50;;;;;;4899916;29;20507;-64
2023/02/06 09:06:08;;;;;;;6.80;6.10;;;15.10;42.50;;;;;;4900108;29;20409;-64
2023/02/06 09:08:35;;;;;;;6.67;5.97;;;15.10;42.50;;;;;;4900051;29;20457;-63
2023/02/06 09:11:27;;;;;;;6.73;6.03;;;15.20;42.50;;;;;;4900439;29;20530;-62
2023/02/06 09:13:57;;;;;;;6.63;5.40;;;15.20;42.50;;;;;;4897639;29;20855;-63
2023/02/06 09:16:25;;;;;;;6.40;5.80;;;15.20;42.50;;;;;;4900193;29;20393;-63
2023/02/06 09:18:52;;;;;;;5.77;4.80;;;15.20;42.40;;;;;;4898802;29;20905;-61
2023/02/06 09:21:30;;;;;;;6.27;5.67;;;15.20;42.40;;;;;;4899885;29;20416;-65
2023/02/06 09:23:59;;;;;;;5.80;5.00;;;15.20;42.40;;;;;;4900376;29;20471;-62
2023/02/06 09:26:28;;;;;;;6.43;5.57;;;15.20;42.60;;;;;;4899585;29;20409;-63
2023/02/06 09:28:56;;;;;;;6.30;5.53;;;15.30;42.70;;;;;;4899818;29;20917;-65
2023/02/06 09:31:23;;;;;;;6.17;5.57;;;15.30;42.60;;;;;;4900034;29;20409;-63
2023/02/06 09:33:49;;;;;;;6.10;5.47;;;15.30;42.50;;;;;;4899673;29;20523;-62
2023/02/06 09:36:17;;;;;;;6.60;5.97;;;15.40;42.60;;;;;;4899899;29;20495;-62
2023/02/06 09:38:45;;;;;;;6.40;5.80;;;15.40;42.60;;;;;;4899617;29;20180;-62
2023/02/06 09:41:17;;;;;;;6.00;5.40;;;15.40;42.50;;;;;;4899624;29;20417;-62
2023/02/06 09:43:50;;;;;;;6.33;5.67;;;15.40;42.50;;;;;;4899160;29;20461;-64
2023/02/06 09:46:20;;;;;;;5.30;4.80;;;15.50;43.00;;;;;;4899978;29;20488;-62
2023/02/06 09:48:48;;;;;;;8.63;5.50;;;15.50;42.40;;;;;;4900180;29;20415;-62
2023/02/06 09:51:20;;;;;;;7.00;4.90;;;15.50;42.40;;;;;;4899724;29;20413;-64
2023/02/06 09:54:06;;;;;;;5.50;4.93;;;15.50;42.40;;;;;;4899716;29;20444;-64
2023/02/06 09:57:00;;;;;;;6.10;5.50;;;15.50;42.40;;;;;;4899321;29;20465;-64
2023/02/06 09:59:42;;;;;;;7.30;4.97;;;15.60;42.40;;;;;;4899404;29;20926;-64
2023/02/06 10:03:05;;;;;;;4.97;4.47;;;15.60;42.40;;;;;;4899758;29;20944;-65
2023/02/06 10:05:33;;;;;;;5.70;5.10;;;15.60;42.40;;;;;;4841337;29;20939;-65
2023/02/06 10:08:04;;;;;;;5.43;4.93;;;15.60;42.40;;;;;;4841297;29;20451;-64
2023/02/06 10:10:42;;;;;;;4.83;4.40;;;15.60;42.30;;;;;;4870957;29;20976;-64
2023/02/06 10:13:19;;;;;;;5.10;4.60;;;15.60;42.30;;;;;;4898977;29;20492;-64
2023/02/06 10:15:52;;;;;;;6.70;5.20;;;15.60;42.30;;;;;;4899071;29;20399;-64
2023/02/06 10:18:40;;;;;;;6.50;5.03;;;15.60;42.30;;;;;;4882472;29;20846;-65
2023/02/06 10:21:31;;;;;;;4.93;4.43;;;15.70;42.30;;;;;;4898738;29;20421;-65
2023/02/06 10:24:12;;;;;;;6.13;5.17;;;15.70;42.30;;;;;;4890632;29;20467;-65
2023/02/06 10:26:39;;;;;;;5.00;4.50;;;15.70;42.30;;;;;;4898750;29;20397;-65
2023/02/06 10:29:10;;;;;;;5.97;4.80;;;15.70;42.30;;;;;;4898634;29;20452;-64
2023/02/06 10:31:52;;;;;;;5.20;4.70;;;15.70;42.20;;;;;;4899244;29;20433;-65
2023/02/06 10:34:30;;;;;;;4.80;4.40;;;15.70;42.20;;;;;;4898738;29;20480;-64
2023/02/06 10:37:18;;;;;;;5.73;4.57;;;15.70;42.20;;;;;;4898754;29;20799;-64
2023/02/06 10:39:44;;;;;;;5.53;5.03;;;15.80;42.20;;;;;;4898355;29;20484;-64
2023/02/06 10:42:36;;;;;;;4.20;3.90;;;15.80;42.30;;;;;;4898351;29;20425;-64
2023/02/06 10:45:10;;;;;;;5.00;4.60;;;15.80;42.20;;;;;;4898528;29;20199;-64
2023/02/06 10:47:57;;;;;;;5.17;4.50;;;15.80;42.20;;;;;;4898386;29;20404;-64
2023/02/06 10:50:35;;;;;;;4.77;4.37;;;15.80;42.20;;;;;;4898574;29;20424;-64
2023/02/06 10:53:25;;;;;;;5.27;4.77;;;15.80;42.20;;;;;;4898487;29;20467;-64
2023/02/06 10:56:31;;;;;;;5.00;4.57;;;15.80;42.70;;;;;;4898573;29;20877;-64
2023/02/06 10:59:03;;;;;;;4.60;4.20;;;15.90;42.30;;;;;;4891205;29;20420;-64
2023/02/06 11:01:34;;;;;;;4.70;4.30;;;15.90;42.30;;;;;;4898708;29;20493;-64
2023/02/06 11:04:31;;;;;;;5.60;4.67;;;15.90;42.30;;;;;;4898092;29;20556;-63
2023/02/06 11:07:01;;;;;;;4.73;4.23;;;15.90;42.30;;;;;;4898844;29;20509;-64
2023/02/06 11:09:26;;;;;;;5.13;4.37;;;15.90;42.30;;;;;;4898423;29;20404;-63
2023/02/06 11:11:55;;;;;;;4.73;4.23;;;15.90;42.20;;;;;;4898240;29;20520;-63
2023/02/06 11:14:48;;;;;;;6.67;4.70;;;15.90;42.20;;;;;;4898346;29;20688;-63
2023/02/06 11:17:21;;;;;;;5.13;4.73;;;16.00;42.30;;;;;;4895712;29;20424;-63
2023/02/06 11:19:48;;;;;;;4.70;4.30;;;16.00;42.20;;;;;;4898276;29;20468;-64
2023/02/06 11:22:24;;;;;;;5.23;4.73;;;16.00;42.20;;;;;;4898082;29;20421;-63
2023/02/06 11:25:06;;;;;;;5.20;4.67;;;16.00;42.20;;;;;;4898191;29;21011;-63
2023/02/06 11:27:34;;;;;;;5.10;4.60;;;16.00;42.20;;;;;;4898161;29;20425;-64
2023/02/06 11:30:08;;;;;;;9.53;5.20;;;16.00;42.20;;;;;;4898305;29;20791;-63
2023/02/06 11:32:42;;;;;;;4.83;4.20;;;16.10;42.20;;;;;;4898073;29;20428;-65
2023/02/06 11:35:28;;;;;;;4.77;4.20;;;16.10;42.20;;;;;;4898064;29;20424;-63
2023/02/06 11:38:12;;;;;;;4.23;3.80;;;16.10;42.20;;;;;;4898481;29;20397;-63
2023/02/06 11:40:38;;;;;;;4.50;3.90;;;16.10;42.20;;;;;;4898224;29;20404;-63
2023/02/06 11:43:19;;;;;;;4.53;4.13;;;16.10;42.20;;;;;;4897847;29;20447;-63
2023/02/06 11:45:47;;;;;;;4.77;4.37;;;16.10;42.20;;;;;;4896757;29;20689;-63
2023/02/06 11:48:30;;;;;;;4.37;3.90;;;16.10;42.20;;;;;;4898115;29;20420;-63
2023/02/06 11:50:56;;;;;;;3.87;3.53;;;16.20;42.20;;;;;;4901394;29;20413;-63
2023/02/06 11:53:22;;;;;;;4.70;4.30;;;16.20;42.20;;;;;;4901473;29;20963;-61
2023/02/06 11:56:05;;;;;;;4.70;4.20;;;16.20;42.20;;;;;;4901329;29;20251;-61
2023/02/06 11:58:31;;;;;;;4.30;3.73;;;16.20;42.20;;;;;;4901151;29;20219;-60
2023/02/06 12:01:05;;;;;;;4.13;3.73;;;16.20;42.20;;;;;;4901112;29;20429;-60
2023/02/06 12:03:36;;;;;;;5.17;4.57;;;16.30;42.30;;;;;;4900649;29;20530;-60
2023/02/06 12:06:04;;;;;;;4.07;3.27;;;16.20;42.20;;;;;;4901828;29;20476;-61
2023/02/06 12:08:51;;;;;;;4.80;4.00;;;16.30;42.30;;;;;;4901208;29;20417;-61
2023/02/06 12:11:23;;;;;;;4.87;4.37;;;16.30;42.20;;;;;;4901092;29;20425;-60
2023/02/06 12:14:05;;;;;;;4.20;3.80;;;16.30;42.20;;;;;;4901319;29;20868;-60
2023/02/06 12:16:35;;;;;;;4.60;3.87;;;16.30;42.20;;;;;;4901300;29;20891;-60
2023/02/06 12:19:04;;;;;;;4.40;4.00;;;16.30;42.20;;;;;;4901140;29;20405;-62
2023/02/06 12:21:48;;;;;;;4.73;4.20;;;16.30;42.20;;;;;;4901033;29;20420;-61
2023/02/06 12:24:28;;;;;;;3.90;3.50;;;16.30;42.20;;;;;;4900873;29;20499;-62
2023/02/06 12:26:56;;;;;;;5.03;4.13;;;16.30;42.20;;;;;;4901122;29;20397;-62
2023/02/06 12:29:29;;;;;;;3.63;3.33;;;16.40;42.20;;;;;;4900928;29;20498;-61
2023/02/06 12:32:08;;;;;;;5.10;4.20;;;16.40;42.20;;;;;;4900960;29;20419;-62
2023/02/06 12:34:49;;;;;;;4.00;3.60;;;16.30;42.20;;;;;;4900542;29;20444;-62
2023/02/06 12:37:34;;;;;;;4.60;4.20;;;16.40;42.30;;;;;;4901716;29;20393;-62
2023/02/06 12:40:00;;;;;;;4.20;3.70;;;16.40;42.20;;;;;;4900900;29;20452;-62
2023/02/06 12:42:41;;;;;;;6.67;4.20;;;16.40;42.20;;;;;;4900638;29;20472;-62
2023/02/06 12:45:30;;;;;;;4.90;4.40;;;16.40;42.20;;;;;;4900727;29;20543;-61
2023/02/06 12:48:40;;;;;;;5.90;4.30;;;16.40;42.20;;;;;;4900857;29;20397;-62
2023/02/06 12:51:22;;;;;;;5.30;4.50;;;16.40;42.20;;;;;;4842874;29;20430;-62
